sensor_id;sensor_type;location;lat;lon;timestamp;temperature;humidity
4594;DHT22;2309;51.674;8.368;2022-12-07T00:01:03;3.90;99.90
4594;DHT22;2309;51.674;8.368;2022-12-07T00:03:24;3.90;99.90
4594;DHT22;2309;51.674;8.368;2022-12-07T00:05:51;3.90;99.90
4594;DHT22;2309;51.674;8.368;2022-12-07T00:08:18;3.90;99.90
4594;DHT22;2309;51.674;8.368;2022-12-07T00:10:44;4.00;99.90
4594;DHT22;2309;51.674;8.368;2022-12-07T00:13:11;4.00;99.90
4594;DHT22;2309;51.674;8.368;2022-12-07T00:15:38;4.00;99.90
4594;DHT22;2309;51.674;8.368;2022-12-07T00:18:05;4.10;99.90
4594;DHT22;2309;51.674;8.368;2022-12-07T00:20:32;4.10;99.90
4594;DHT22;2309;51.674;8.368;2022-12-07T00:22:59;4.10;99.90
4594;DHT22;2309;51.674;8.368;2022-12-07T00:25:26;4.10;99.90
4594;DHT22;2309;51.674;8.368;2022-12-07T00:27:53;4.10;99.90
4594;DHT22;2309;51.674;8.368;2022-12-07T00:30:22;4.10;99.90
4594;DHT22;2309;51.674;8.368;2022-12-07T00:32:49;4.10;99.90
4594;DHT22;2309;51.674;8.368;2022-12-07T00:35:16;4.10;99.90
4594;DHT22;2309;51.674;8.368;2022-12-07T00:37:43;4.10;99.90
4594;DHT22;2309;51.674;8.368;2022-12-07T00:40:10;4.10;99.90
4594;DHT22;2309;51.674;8.368;2022-12-07T00:42:37;4.10;99.90
4594;DHT22;2309;51.674;8.368;2022-12-07T00:45:05;4.20;99.90
4594;DHT22;2309;51.674;8.368;2022-12-07T00:47:32;4.20;99.90
4594;DHT22;2309;51.674;8.368;2022-12-07T00:49:59;4.20;99.90
4594;DHT22;2309;51.674;8.368;2022-12-07T00:52:28;5.10;99.90
4594;DHT22;2309;51.674;8.368;2022-12-07T00:54:54;4.00;99.90
4594;DHT22;2309;51.674;8.368;2022-12-07T00:57:21;4.20;99.90
4594;DHT22;2309;51.674;8.368;2022-12-07T00:59:48;4.20;99.90
4594;DHT22;2309;51.674;8.368;2022-12-07T01:02:15;4.20;99.90
4594;DHT22;2309;51.674;8.368;2022-12-07T01:04:42;4.20;99.90
4594;DHT22;2309;51.674;8.368;2022-12-07T01:07:08;4.20;99.90
4594;DHT22;2309;51.674;8.368;2022-12-07T01:09:37;4.20;99.90
4594;DHT22;2309;51.674;8.368;2022-12-07T01:12:04;4.20;99.90
4594;DHT22;2309;51.674;8.368;2022-12-07T01:14:31;4.20;99.90
4594;DHT22;2309;51.674;8.368;2022-12-07T01:16:57;4.30;99.90
4594;DHT22;2309;51.674;8.368;2022-12-07T01:19:24;4.30;99.90
4594;DHT22;2309;51.674;8.368;2022-12-07T01:21:51;4.20;99.90
4594;DHT22;2309;51.674;8.368;2022-12-07T01:24:18;4.30;99.90
4594;DHT22;2309;51.674;8.368;2022-12-07T01:26:45;4.20;99.90
4594;DHT22;2309;51.674;8.368;2022-12-07T01:29:11;4.20;99.90
4594;DHT22;2309;51.674;8.368;2022-12-07T01:31:38;4.20;99.90
4594;DHT22;2309;51.674;8.368;2022-12-07T01:34:05;4.20;99.90
4594;DHT22;2309;51.674;8.368;2022-12-07T01:36:33;4.20;99.90
4594;DHT22;2309;51.674;8.368;2022-12-07T01:39:02;4.30;99.90
4594;DHT22;2309;51.674;8.368;2022-12-07T01:41:31;4.20;99.90
4594;DHT22;2309;51.674;8.368;2022-12-07T01:44:29;4.30;99.90
4594;DHT22;2309;51.674;8.368;2022-12-07T01:46:28;4.20;99.90
4594;DHT22;2309;51.674;8.368;2022-12-07T01:48:55;4.20;99.90
4594;DHT22;2309;51.674;8.368;2022-12-07T01:51:22;4.20;99.90
4594;DHT22;2309;51.674;8.368;2022-12-07T01:53:49;4.30;99.90
4594;DHT22;2309;51.674;8.368;2022-12-07T01:56:17;4.30;99.90
4594;DHT22;2309;51.674;8.368;2022-12-07T01:58:45;4.20;99.90
4594;DHT22;2309;51.674;8.368;2022-12-07T02:01:12;4.30;99.90
4594;DHT22;2309;51.674;8.368;2022-12-07T02:03:39;4.30;99.90
4594;DHT22;2309;51.674;8.368;2022-12-07T02:06:07;4.30;99.90
4594;DHT22;2309;51.674;8.368;2022-12-07T02:08:34;4.30;99.90
4594;DHT22;2309;51.674;8.368;2022-12-07T02:11:03;4.30;99.90
4594;DHT22;2309;51.674;8.368;2022-12-07T02:13:31;4.30;99.90
4594;DHT22;2309;51.674;8.368;2022-12-07T02:16:03;4.40;99.90
4594;DHT22;2309;51.674;8.368;2022-12-07T02:18:32;4.30;99.90
4594;DHT22;2309;51.674;8.368;2022-12-07T02:21:06;4.30;99.90
4594;DHT22;2309;51.674;8.368;2022-12-07T02:26:02;4.30;99.90
4594;DHT22;2309;51.674;8.368;2022-12-07T02:28:27;4.30;99.90
4594;DHT22;2309;51.674;8.368;2022-12-07T02:30:47;4.30;99.90
4594;DHT22;2309;51.674;8.368;2022-12-07T02:33:17;4.30;99.90
4594;DHT22;2309;51.674;8.368;2022-12-07T02:35:46;4.30;99.90
4594;DHT22;2309;51.674;8.368;2022-12-07T02:38:16;4.30;99.90
4594;DHT22;2309;51.674;8.368;2022-12-07T02:40:43;4.40;99.90
4594;DHT22;2309;51.674;8.368;2022-12-07T02:43:11;4.30;99.90
4594;DHT22;2309;51.674;8.368;2022-12-07T02:45:38;4.30;99.90
4594;DHT22;2309;51.674;8.368;2022-12-07T02:48:08;4.30;99.90
4594;DHT22;2309;51.674;8.368;2022-12-07T02:50:35;4.30;99.90
4594;DHT22;2309;51.674;8.368;2022-12-07T02:53:03;4.30;99.90
4594;DHT22;2309;51.674;8.368;2022-12-07T02:55:38;4.30;99.90
4594;DHT22;2309;51.674;8.368;2022-12-07T02:58:06;4.30;99.90
4594;DHT22;2309;51.674;8.368;2022-12-07T03:00:26;4.40;99.90
4594;DHT22;2309;51.674;8.368;2022-12-07T03:02:58;4.30;99.90
4594;DHT22;2309;51.674;8.368;2022-12-07T03:08:23;4.40;99.90
4594;DHT22;2309;51.674;8.368;2022-12-07T03:15:17;4.20;99.90
4594;DHT22;2309;51.674;8.368;2022-12-07T03:17:43;4.10;99.90
4594;DHT22;2309;51.674;8.368;2022-12-07T03:20:12;4.10;99.90
4594;DHT22;2309;51.674;8.368;2022-12-07T03:22:40;4.00;99.90
4594;DHT22;2309;51.674;8.368;2022-12-07T03:25:08;4.10;99.90
4594;DHT22;2309;51.674;8.368;2022-12-07T03:27:38;4.10;99.90
4594;DHT22;2309;51.674;8.368;2022-12-07T03:30:04;4.10;99.90
4594;DHT22;2309;51.674;8.368;2022-12-07T03:32:36;4.10;99.90
4594;DHT22;2309;51.674;8.368;2022-12-07T03:35:03;4.10;99.90
4594;DHT22;2309;51.674;8.368;2022-12-07T03:37:31;4.20;99.90
4594;DHT22;2309;51.674;8.368;2022-12-07T03:39:59;4.10;99.90
4594;DHT22;2309;51.674;8.368;2022-12-07T03:42:25;4.00;99.90
4594;DHT22;2309;51.674;8.368;2022-12-07T03:44:53;4.00;99.90
4594;DHT22;2309;51.674;8.368;2022-12-07T03:47:29;3.90;99.90
4594;DHT22;2309;51.674;8.368;2022-12-07T03:49:49;3.90;99.90
4594;DHT22;2309;51.674;8.368;2022-12-07T03:54:47;3.80;99.90
4594;DHT22;2309;51.674;8.368;2022-12-07T03:57:13;3.80;99.90
4594;DHT22;2309;51.674;8.368;2022-12-07T03:59:40;3.70;99.90
4594;DHT22;2309;51.674;8.368;2022-12-07T04:02:11;3.70;99.90
4594;DHT22;2309;51.674;8.368;2022-12-07T04:04:39;3.60;99.90
4594;DHT22;2309;51.674;8.368;2022-12-07T04:07:06;3.60;99.90
4594;DHT22;2309;51.674;8.368;2022-12-07T04:09:32;3.70;99.90
4594;DHT22;2309;51.674;8.368;2022-12-07T04:11:59;3.60;99.90
4594;DHT22;2309;51.674;8.368;2022-12-07T04:14:26;3.70;99.90
4594;DHT22;2309;51.674;8.368;2022-12-07T04:16:55;3.60;99.90
4594;DHT22;2309;51.674;8.368;2022-12-07T04:19:24;3.60;99.90
4594;DHT22;2309;51.674;8.368;2022-12-07T04:21:53;3.50;99.90
4594;DHT22;2309;51.674;8.368;2022-12-07T04:26:46;3.50;99.90
4594;DHT22;2309;51.674;8.368;2022-12-07T04:29:14;3.50;99.90
4594;DHT22;2309;51.674;8.368;2022-12-07T04:31:41;3.50;99.90
4594;DHT22;2309;51.674;8.368;2022-12-07T04:34:08;3.50;99.90
4594;DHT22;2309;51.674;8.368;2022-12-07T04:36:34;3.40;99.90
4594;DHT22;2309;51.674;8.368;2022-12-07T04:39:04;3.40;99.90
4594;DHT22;2309;51.674;8.368;2022-12-07T04:41:31;3.10;99.90
4594;DHT22;2309;51.674;8.368;2022-12-07T04:43:59;3.20;99.90
4594;DHT22;2309;51.674;8.368;2022-12-07T04:46:27;3.30;99.90
4594;DHT22;2309;51.674;8.368;2022-12-07T04:48:54;3.30;99.90
4594;DHT22;2309;51.674;8.368;2022-12-07T04:51:22;3.30;99.90
4594;DHT22;2309;51.674;8.368;2022-12-07T04:53:49;3.40;99.90
4594;DHT22;2309;51.674;8.368;2022-12-07T04:56:17;3.40;99.90
4594;DHT22;2309;51.674;8.368;2022-12-07T04:58:44;3.40;99.90
4594;DHT22;2309;51.674;8.368;2022-12-07T05:01:12;3.50;99.90
4594;DHT22;2309;51.674;8.368;2022-12-07T05:03:39;3.50;99.90
4594;DHT22;2309;51.674;8.368;2022-12-07T05:06:06;3.50;99.90
4594;DHT22;2309;51.674;8.368;2022-12-07T05:11:01;3.40;99.90
4594;DHT22;2309;51.674;8.368;2022-12-07T05:13:28;3.50;99.90
4594;DHT22;2309;51.674;8.368;2022-12-07T05:15:55;3.40;99.90
4594;DHT22;2309;51.674;8.368;2022-12-07T05:18:22;3.40;99.90
4594;DHT22;2309;51.674;8.368;2022-12-07T05:20:49;3.50;99.90
4594;DHT22;2309;51.674;8.368;2022-12-07T05:23:17;3.40;99.90
4594;DHT22;2309;51.674;8.368;2022-12-07T05:25:44;3.40;99.90
4594;DHT22;2309;51.674;8.368;2022-12-07T05:28:11;3.40;99.90
4594;DHT22;2309;51.674;8.368;2022-12-07T05:30:38;3.50;99.90
4594;DHT22;2309;51.674;8.368;2022-12-07T05:33:04;3.40;99.90
4594;DHT22;2309;51.674;8.368;2022-12-07T05:35:31;3.50;99.90
4594;DHT22;2309;51.674;8.368;2022-12-07T05:37:58;3.50;99.90
4594;DHT22;2309;51.674;8.368;2022-12-07T05:42:51;3.50;99.90
4594;DHT22;2309;51.674;8.368;2022-12-07T05:45:18;3.40;99.90
4594;DHT22;2309;51.674;8.368;2022-12-07T05:47:45;3.40;99.90
4594;DHT22;2309;51.674;8.368;2022-12-07T05:50:12;3.40;99.90
4594;DHT22;2309;51.674;8.368;2022-12-07T05:52:39;3.40;99.90
4594;DHT22;2309;51.674;8.368;2022-12-07T05:55:06;3.50;99.90
4594;DHT22;2309;51.674;8.368;2022-12-07T05:57:33;3.90;99.90
4594;DHT22;2309;51.674;8.368;2022-12-07T06:00:00;3.50;99.90
4594;DHT22;2309;51.674;8.368;2022-12-07T06:02:26;3.40;99.90
4594;DHT22;2309;51.674;8.368;2022-12-07T06:04:53;3.40;99.90
4594;DHT22;2309;51.674;8.368;2022-12-07T06:07:20;3.30;99.90
4594;DHT22;2309;51.674;8.368;2022-12-07T06:09:48;2.70;99.90
4594;DHT22;2309;51.674;8.368;2022-12-07T06:12:15;3.30;99.90
4594;DHT22;2309;51.674;8.368;2022-12-07T06:14:44;3.20;99.90
4594;DHT22;2309;51.674;8.368;2022-12-07T06:17:11;3.20;99.90
4594;DHT22;2309;51.674;8.368;2022-12-07T06:19:40;3.20;99.90
4594;DHT22;2309;51.674;8.368;2022-12-07T06:22:08;3.00;99.90
4594;DHT22;2309;51.674;8.368;2022-12-07T06:24:36;3.20;99.90
4594;DHT22;2309;51.674;8.368;2022-12-07T06:27:03;3.20;99.90
4594;DHT22;2309;51.674;8.368;2022-12-07T06:29:31;3.30;99.90
4594;DHT22;2309;51.674;8.368;2022-12-07T06:31:57;3.30;99.90
4594;DHT22;2309;51.674;8.368;2022-12-07T06:34:24;3.30;99.90
4594;DHT22;2309;51.674;8.368;2022-12-07T06:36:51;3.20;99.90
4594;DHT22;2309;51.674;8.368;2022-12-07T06:39:22;3.20;99.90
4594;DHT22;2309;51.674;8.368;2022-12-07T06:41:49;3.20;99.90
4594;DHT22;2309;51.674;8.368;2022-12-07T06:44:17;3.20;99.90
4594;DHT22;2309;51.674;8.368;2022-12-07T06:46:44;3.20;99.90
4594;DHT22;2309;51.674;8.368;2022-12-07T06:49:11;3.10;99.90
4594;DHT22;2309;51.674;8.368;2022-12-07T06:51:38;3.10;99.90
4594;DHT22;2309;51.674;8.368;2022-12-07T06:54:09;3.10;99.90
4594;DHT22;2309;51.674;8.368;2022-12-07T06:56:36;3.00;99.90
4594;DHT22;2309;51.674;8.368;2022-12-07T06:59:04;3.10;99.90
4594;DHT22;2309;51.674;8.368;2022-12-07T07:01:32;3.20;99.90
4594;DHT22;2309;51.674;8.368;2022-12-07T07:03:59;2.90;99.90
4594;DHT22;2309;51.674;8.368;2022-12-07T07:06:26;3.20;99.90
4594;DHT22;2309;51.674;8.368;2022-12-07T07:08:53;3.10;99.90
4594;DHT22;2309;51.674;8.368;2022-12-07T07:11:20;3.10;99.90
4594;DHT22;2309;51.674;8.368;2022-12-07T07:13:47;3.20;99.90
4594;DHT22;2309;51.674;8.368;2022-12-07T07:16:14;3.10;99.90
4594;DHT22;2309;51.674;8.368;2022-12-07T07:18:40;3.10;99.90
4594;DHT22;2309;51.674;8.368;2022-12-07T07:21:07;3.10;99.90
4594;DHT22;2309;51.674;8.368;2022-12-07T07:23:34;3.00;99.90
4594;DHT22;2309;51.674;8.368;2022-12-07T07:26:01;3.00;99.90
4594;DHT22;2309;51.674;8.368;2022-12-07T07:28:28;3.00;99.90
4594;DHT22;2309;51.674;8.368;2022-12-07T07:30:55;3.00;99.90
4594;DHT22;2309;51.674;8.368;2022-12-07T07:33:26;3.00;99.90
4594;DHT22;2309;51.674;8.368;2022-12-07T07:35:50;3.00;99.90
4594;DHT22;2309;51.674;8.368;2022-12-07T07:38:17;3.00;99.90
4594;DHT22;2309;51.674;8.368;2022-12-07T07:40:46;3.00;99.90
4594;DHT22;2309;51.674;8.368;2022-12-07T07:45:40;2.90;99.90
4594;DHT22;2309;51.674;8.368;2022-12-07T07:48:07;2.80;99.90
4594;DHT22;2309;51.674;8.368;2022-12-07T07:53:03;2.90;99.90
4594;DHT22;2309;51.674;8.368;2022-12-07T07:58:01;2.80;99.90
4594;DHT22;2309;51.674;8.368;2022-12-07T08:00:28;2.80;99.90
4594;DHT22;2309;51.674;8.368;2022-12-07T08:03:41;2.90;99.90
4594;DHT22;2309;51.674;8.368;2022-12-07T08:08:35;3.00;99.90
4594;DHT22;2309;51.674;8.368;2022-12-07T08:11:04;3.10;99.90
4594;DHT22;2309;51.674;8.368;2022-12-07T08:13:35;3.20;99.90
4594;DHT22;2309;51.674;8.368;2022-12-07T08:16:06;3.30;99.90
4594;DHT22;2309;51.674;8.368;2022-12-07T08:18:30;3.30;99.90
4594;DHT22;2309;51.674;8.368;2022-12-07T08:21:12;3.30;99.90
4594;DHT22;2309;51.674;8.368;2022-12-07T08:24:09;3.30;99.90
4594;DHT22;2309;51.674;8.368;2022-12-07T08:31:03;3.20;99.90
4594;DHT22;2309;51.674;8.368;2022-12-07T08:33:33;3.10;99.90
4594;DHT22;2309;51.674;8.368;2022-12-07T08:36:07;3.10;99.90
4594;DHT22;2309;51.674;8.368;2022-12-07T08:50:29;3.50;99.90
4594;DHT22;2309;51.674;8.368;2022-12-07T08:53:07;3.50;99.90
4594;DHT22;2309;51.674;8.368;2022-12-07T08:55:23;3.40;99.90
4594;DHT22;2309;51.674;8.368;2022-12-07T09:09:12;3.30;99.90
4594;DHT22;2309;51.674;8.368;2022-12-07T09:40:53;4.10;99.90
4594;DHT22;2309;51.674;8.368;2022-12-07T09:55:41;3.90;99.90
4594;DHT22;2309;51.674;8.368;2022-12-07T09:58:12;4.00;99.90
4594;DHT22;2309;51.674;8.368;2022-12-07T10:00:39;4.00;99.90
4594;DHT22;2309;51.674;8.368;2022-12-07T10:05:35;4.20;99.90
4594;DHT22;2309;51.674;8.368;2022-12-07T10:08:04;4.30;99.90
4594;DHT22;2309;51.674;8.368;2022-12-07T10:15:58;4.40;99.90
4594;DHT22;2309;51.674;8.368;2022-12-07T10:17:55;4.40;99.90
4594;DHT22;2309;51.674;8.368;2022-12-07T10:25:22;4.60;99.90
4594;DHT22;2309;51.674;8.368;2022-12-07T10:27:57;4.50;99.90
4594;DHT22;2309;51.674;8.368;2022-12-07T10:32:47;4.60;99.90
4594;DHT22;2309;51.674;8.368;2022-12-07T10:35:22;4.60;99.90
4594;DHT22;2309;51.674;8.368;2022-12-07T10:37:55;4.50;99.90
4594;DHT22;2309;51.674;8.368;2022-12-07T10:40:25;4.60;99.90
4594;DHT22;2309;51.674;8.368;2022-12-07T10:58:17;4.80;99.90
4594;DHT22;2309;51.674;8.368;2022-12-07T11:08:17;5.00;99.90
4594;DHT22;2309;51.674;8.368;2022-12-07T11:10:55;5.00;99.90
4594;DHT22;2309;51.674;8.368;2022-12-07T11:13:19;5.10;99.90
4594;DHT22;2309;51.674;8.368;2022-12-07T11:16:01;5.20;99.90
4594;DHT22;2309;51.674;8.368;2022-12-07T11:18:15;5.20;99.90
4594;DHT22;2309;51.674;8.368;2022-12-07T11:20:43;5.30;99.90
4594;DHT22;2309;51.674;8.368;2022-12-07T11:25:45;5.40;99.90
4594;DHT22;2309;51.674;8.368;2022-12-07T11:28:13;5.50;99.90
4594;DHT22;2309;51.674;8.368;2022-12-07T11:30:43;5.60;99.90
4594;DHT22;2309;51.674;8.368;2022-12-07T11:33:07;5.60;99.90
4594;DHT22;2309;51.674;8.368;2022-12-07T11:38:10;5.50;99.90
4594;DHT22;2309;51.674;8.368;2022-12-07T11:40:36;5.60;99.90
4594;DHT22;2309;51.674;8.368;2022-12-07T11:46:08;6.00;99.90
4594;DHT22;2309;51.674;8.368;2022-12-07T11:48:29;5.90;99.90
4594;DHT22;2309;51.674;8.368;2022-12-07T11:50:57;5.80;99.90
4594;DHT22;2309;51.674;8.368;2022-12-07T11:53:59;5.70;99.90
4594;DHT22;2309;51.674;8.368;2022-12-07T11:56:15;5.60;99.90
4594;DHT22;2309;51.674;8.368;2022-12-07T11:58:58;5.60;99.90
4594;DHT22;2309;51.674;8.368;2022-12-07T12:01:15;5.50;99.90
4594;DHT22;2309;51.674;8.368;2022-12-07T12:03:47;5.40;99.90
4594;DHT22;2309;51.674;8.368;2022-12-07T12:06:13;5.30;99.90
4594;DHT22;2309;51.674;8.368;2022-12-07T12:08:45;5.40;99.90
4594;DHT22;2309;51.674;8.368;2022-12-07T12:16:14;5.40;99.90
4594;DHT22;2309;51.674;8.368;2022-12-07T12:21:22;5.30;99.90
4594;DHT22;2309;51.674;8.368;2022-12-07T12:24:09;5.30;99.90
4594;DHT22;2309;51.674;8.368;2022-12-07T12:26:20;5.40;99.90
4594;DHT22;2309;51.674;8.368;2022-12-07T12:33:46;5.40;99.90
4594;DHT22;2309;51.674;8.368;2022-12-07T12:45:04;5.40;99.90
4594;DHT22;2309;51.674;8.368;2022-12-07T12:47:38;5.50;99.90
4594;DHT22;2309;51.674;8.368;2022-12-07T12:53:35;5.50;99.90
4594;DHT22;2309;51.674;8.368;2022-12-07T13:03:22;8.70;99.90
4594;DHT22;2309;51.674;8.368;2022-12-07T13:08:16;9.80;99.90
4594;DHT22;2309;51.674;8.368;2022-12-07T13:13:28;10.30;99.90
4594;DHT22;2309;51.674;8.368;2022-12-07T13:18:40;10.50;99.90
4594;DHT22;2309;51.674;8.368;2022-12-07T13:20:51;10.10;99.90
4594;DHT22;2309;51.674;8.368;2022-12-07T13:26:35;9.80;99.90
4594;DHT22;2309;51.674;8.368;2022-12-07T13:28:19;9.50;99.90
4594;DHT22;2309;51.674;8.368;2022-12-07T13:35:54;7.40;99.90
4594;DHT22;2309;51.674;8.368;2022-12-07T13:38:32;7.30;99.90
4594;DHT22;2309;51.674;8.368;2022-12-07T13:48:23;6.00;99.90
4594;DHT22;2309;51.674;8.368;2022-12-07T13:56:57;5.80;99.90
4594;DHT22;2309;51.674;8.368;2022-12-07T13:59:41;5.70;99.90
4594;DHT22;2309;51.674;8.368;2022-12-07T14:02:53;5.60;99.90
4594;DHT22;2309;51.674;8.368;2022-12-07T14:04:37;5.40;99.90
4594;DHT22;2309;51.674;8.368;2022-12-07T14:07:21;5.30;99.90
4594;DHT22;2309;51.674;8.368;2022-12-07T14:09:32;5.30;99.90
4594;DHT22;2309;51.674;8.368;2022-12-07T14:12:00;5.20;99.90
4594;DHT22;2309;51.674;8.368;2022-12-07T14:14:29;6.50;99.90
4594;DHT22;2309;51.674;8.368;2022-12-07T14:17:02;5.10;99.90
4594;DHT22;2309;51.674;8.368;2022-12-07T14:19:43;5.00;99.90
4594;DHT22;2309;51.674;8.368;2022-12-07T14:24:23;4.90;99.90
4594;DHT22;2309;51.674;8.368;2022-12-07T14:31:48;4.70;99.90
4594;DHT22;2309;51.674;8.368;2022-12-07T14:34:13;4.60;99.90
4594;DHT22;2309;51.674;8.368;2022-12-07T14:36:40;4.60;99.90
4594;DHT22;2309;51.674;8.368;2022-12-07T14:39:09;4.50;99.90
4594;DHT22;2309;51.674;8.368;2022-12-07T14:41:35;4.50;99.90
4594;DHT22;2309;51.674;8.368;2022-12-07T14:44:09;4.40;99.90
4594;DHT22;2309;51.674;8.368;2022-12-07T14:46:32;4.40;99.90
4594;DHT22;2309;51.674;8.368;2022-12-07T14:48:59;4.30;99.90
4594;DHT22;2309;51.674;8.368;2022-12-07T14:51:26;4.20;99.90
4594;DHT22;2309;51.674;8.368;2022-12-07T14:53:53;4.20;99.90
4594;DHT22;2309;51.674;8.368;2022-12-07T14:56:20;4.30;99.90
4594;DHT22;2309;51.674;8.368;2022-12-07T14:58:46;4.20;99.90
4594;DHT22;2309;51.674;8.368;2022-12-07T15:01:14;4.30;99.90
4594;DHT22;2309;51.674;8.368;2022-12-07T15:03:40;4.20;99.90
4594;DHT22;2309;51.674;8.368;2022-12-07T15:06:14;4.10;99.90
4594;DHT22;2309;51.674;8.368;2022-12-07T15:08:36;4.10;99.90
4594;DHT22;2309;51.674;8.368;2022-12-07T15:11:03;4.10;99.90
4594;DHT22;2309;51.674;8.368;2022-12-07T15:13:29;4.10;99.90
4594;DHT22;2309;51.674;8.368;2022-12-07T15:15:58;3.80;99.90
4594;DHT22;2309;51.674;8.368;2022-12-07T15:18:26;4.00;99.90
4594;DHT22;2309;51.674;8.368;2022-12-07T15:20:52;4.00;99.90
4594;DHT22;2309;51.674;8.368;2022-12-07T15:23:19;4.10;99.90
4594;DHT22;2309;51.674;8.368;2022-12-07T15:28:13;4.00;99.90
4594;DHT22;2309;51.674;8.368;2022-12-07T15:30:40;4.00;99.90
4594;DHT22;2309;51.674;8.368;2022-12-07T15:33:08;4.00;99.90
4594;DHT22;2309;51.674;8.368;2022-12-07T15:35:43;4.10;99.90
4594;DHT22;2309;51.674;8.368;2022-12-07T15:38:04;4.10;99.90
4594;DHT22;2309;51.674;8.368;2022-12-07T15:40:30;4.00;99.90
4594;DHT22;2309;51.674;8.368;2022-12-07T15:42:57;4.00;99.90
4594;DHT22;2309;51.674;8.368;2022-12-07T15:45:24;4.00;99.90
4594;DHT22;2309;51.674;8.368;2022-12-07T15:47:51;4.00;99.90
4594;DHT22;2309;51.674;8.368;2022-12-07T15:50:18;4.00;99.90
4594;DHT22;2309;51.674;8.368;2022-12-07T15:55:11;4.10;99.90
4594;DHT22;2309;51.674;8.368;2022-12-07T15:57:38;4.00;99.90
4594;DHT22;2309;51.674;8.368;2022-12-07T16:00:06;4.00;99.90
4594;DHT22;2309;51.674;8.368;2022-12-07T16:02:33;4.00;99.90
4594;DHT22;2309;51.674;8.368;2022-12-07T16:05:00;3.90;99.90
4594;DHT22;2309;51.674;8.368;2022-12-07T16:07:26;4.00;99.90
4594;DHT22;2309;51.674;8.368;2022-12-07T16:09:53;3.90;99.90
4594;DHT22;2309;51.674;8.368;2022-12-07T16:12:20;4.80;99.90
4594;DHT22;2309;51.674;8.368;2022-12-07T16:14:47;4.00;99.90
4594;DHT22;2309;51.674;8.368;2022-12-07T16:17:14;4.10;99.90
4594;DHT22;2309;51.674;8.368;2022-12-07T16:19:40;4.50;99.90
4594;DHT22;2309;51.674;8.368;2022-12-07T16:22:07;4.00;99.90
4594;DHT22;2309;51.674;8.368;2022-12-07T16:24:34;4.50;99.90
4594;DHT22;2309;51.674;8.368;2022-12-07T16:27:01;4.00;99.90
4594;DHT22;2309;51.674;8.368;2022-12-07T16:29:28;4.00;99.90
4594;DHT22;2309;51.674;8.368;2022-12-07T16:31:54;2.10;99.90
4594;DHT22;2309;51.674;8.368;2022-12-07T16:34:21;4.00;99.90
4594;DHT22;2309;51.674;8.368;2022-12-07T16:36:48;3.90;99.90
4594;DHT22;2309;51.674;8.368;2022-12-07T16:39:15;3.70;99.90
4594;DHT22;2309;51.674;8.368;2022-12-07T16:41:43;3.80;99.90
4594;DHT22;2309;51.674;8.368;2022-12-07T16:44:11;3.80;99.90
4594;DHT22;2309;51.674;8.368;2022-12-07T16:46:38;3.80;99.90
4594;DHT22;2309;51.674;8.368;2022-12-07T16:49:05;3.80;99.90
4594;DHT22;2309;51.674;8.368;2022-12-07T16:51:31;4.10;99.90
4594;DHT22;2309;51.674;8.368;2022-12-07T16:54:00;4.60;99.90
4594;DHT22;2309;51.674;8.368;2022-12-07T16:56:27;3.70;99.90
4594;DHT22;2309;51.674;8.368;2022-12-07T16:58:54;3.70;99.90
4594;DHT22;2309;51.674;8.368;2022-12-07T17:01:22;3.60;99.90
4594;DHT22;2309;51.674;8.368;2022-12-07T17:03:49;3.60;99.90
4594;DHT22;2309;51.674;8.368;2022-12-07T17:06:18;3.70;99.90
4594;DHT22;2309;51.674;8.368;2022-12-07T17:08:44;3.60;99.90
4594;DHT22;2309;51.674;8.368;2022-12-07T17:11:13;3.60;99.90
4594;DHT22;2309;51.674;8.368;2022-12-07T17:13:40;3.50;99.90
4594;DHT22;2309;51.674;8.368;2022-12-07T17:16:09;3.60;99.90
4594;DHT22;2309;51.674;8.368;2022-12-07T17:18:35;3.60;99.90
4594;DHT22;2309;51.674;8.368;2022-12-07T17:21:03;3.40;99.90
4594;DHT22;2309;51.674;8.368;2022-12-07T17:23:31;3.50;99.90
4594;DHT22;2309;51.674;8.368;2022-12-07T17:26:15;3.50;99.90
4594;DHT22;2309;51.674;8.368;2022-12-07T17:28:26;3.40;99.90
4594;DHT22;2309;51.674;8.368;2022-12-07T17:30:53;3.40;99.90
4594;DHT22;2309;51.674;8.368;2022-12-07T17:33:20;3.70;99.90
4594;DHT22;2309;51.674;8.368;2022-12-07T17:35:47;3.40;99.90
4594;DHT22;2309;51.674;8.368;2022-12-07T17:38:13;3.50;99.90
4594;DHT22;2309;51.674;8.368;2022-12-07T17:40:40;3.40;99.90
4594;DHT22;2309;51.674;8.368;2022-12-07T17:43:07;4.00;99.90
4594;DHT22;2309;51.674;8.368;2022-12-07T17:45:36;3.50;99.90
4594;DHT22;2309;51.674;8.368;2022-12-07T17:48:03;3.40;99.90
4594;DHT22;2309;51.674;8.368;2022-12-07T17:50:30;3.50;99.90
4594;DHT22;2309;51.674;8.368;2022-12-07T17:52:59;3.50;99.90
4594;DHT22;2309;51.674;8.368;2022-12-07T17:55:27;3.50;99.90
4594;DHT22;2309;51.674;8.368;2022-12-07T17:57:54;3.40;99.90
4594;DHT22;2309;51.674;8.368;2022-12-07T18:00:21;4.50;99.90
4594;DHT22;2309;51.674;8.368;2022-12-07T18:02:48;3.40;99.90
4594;DHT22;2309;51.674;8.368;2022-12-07T18:05:14;3.60;99.90
4594;DHT22;2309;51.674;8.368;2022-12-07T18:07:41;3.60;99.90
4594;DHT22;2309;51.674;8.368;2022-12-07T18:10:08;3.60;99.90
4594;DHT22;2309;51.674;8.368;2022-12-07T18:12:37;3.60;99.90
4594;DHT22;2309;51.674;8.368;2022-12-07T18:15:05;3.60;99.90
4594;DHT22;2309;51.674;8.368;2022-12-07T18:17:32;3.50;99.90
4594;DHT22;2309;51.674;8.368;2022-12-07T18:19:59;3.60;99.90
4594;DHT22;2309;51.674;8.368;2022-12-07T18:22:26;3.60;99.90
4594;DHT22;2309;51.674;8.368;2022-12-07T18:24:53;3.60;99.90
4594;DHT22;2309;51.674;8.368;2022-12-07T18:27:20;4.40;99.90
4594;DHT22;2309;51.674;8.368;2022-12-07T18:29:47;3.60;99.90
4594;DHT22;2309;51.674;8.368;2022-12-07T18:32:14;3.60;99.90
4594;DHT22;2309;51.674;8.368;2022-12-07T18:34:40;3.70;99.90
4594;DHT22;2309;51.674;8.368;2022-12-07T18:37:07;3.60;99.90
4594;DHT22;2309;51.674;8.368;2022-12-07T18:39:34;3.60;99.90
4594;DHT22;2309;51.674;8.368;2022-12-07T18:42:01;4.20;99.90
4594;DHT22;2309;51.674;8.368;2022-12-07T18:44:28;3.60;99.90
4594;DHT22;2309;51.674;8.368;2022-12-07T18:46:55;3.60;99.90
4594;DHT22;2309;51.674;8.368;2022-12-07T18:49:22;3.70;99.90
4594;DHT22;2309;51.674;8.368;2022-12-07T18:51:49;3.60;99.90
4594;DHT22;2309;51.674;8.368;2022-12-07T18:54:16;3.60;99.90
4594;DHT22;2309;51.674;8.368;2022-12-07T18:56:42;3.70;99.90
4594;DHT22;2309;51.674;8.368;2022-12-07T18:59:10;3.80;99.90
4594;DHT22;2309;51.674;8.368;2022-12-07T19:01:40;3.80;99.90
4594;DHT22;2309;51.674;8.368;2022-12-07T19:04:07;1.80;99.90
4594;DHT22;2309;51.674;8.368;2022-12-07T19:06:33;3.80;99.90
4594;DHT22;2309;51.674;8.368;2022-12-07T19:09:00;3.70;99.90
4594;DHT22;2309;51.674;8.368;2022-12-07T19:11:28;3.80;99.90
4594;DHT22;2309;51.674;8.368;2022-12-07T19:13:57;3.80;99.90
4594;DHT22;2309;51.674;8.368;2022-12-07T19:16:24;4.20;99.90
4594;DHT22;2309;51.674;8.368;2022-12-07T19:18:51;3.70;99.90
4594;DHT22;2309;51.674;8.368;2022-12-07T19:21:18;3.70;99.90
4594;DHT22;2309;51.674;8.368;2022-12-07T19:23:44;3.20;99.90
4594;DHT22;2309;51.674;8.368;2022-12-07T19:26:11;3.60;99.90
4594;DHT22;2309;51.674;8.368;2022-12-07T19:28:38;3.60;99.90
4594;DHT22;2309;51.674;8.368;2022-12-07T19:31:05;3.60;99.90
4594;DHT22;2309;51.674;8.368;2022-12-07T19:33:32;3.50;99.90
4594;DHT22;2309;51.674;8.368;2022-12-07T19:35:59;5.00;99.90
4594;DHT22;2309;51.674;8.368;2022-12-07T19:38:28;3.50;99.90
4594;DHT22;2309;51.674;8.368;2022-12-07T19:40:54;3.40;99.90
4594;DHT22;2309;51.674;8.368;2022-12-07T19:43:21;1.50;99.90
4594;DHT22;2309;51.674;8.368;2022-12-07T19:45:48;3.30;99.90
4594;DHT22;2309;51.674;8.368;2022-12-07T19:48:15;3.50;99.90
4594;DHT22;2309;51.674;8.368;2022-12-07T19:50:42;3.50;99.90
4594;DHT22;2309;51.674;8.368;2022-12-07T19:53:08;3.50;99.90
4594;DHT22;2309;51.674;8.368;2022-12-07T19:55:38;3.50;99.90
4594;DHT22;2309;51.674;8.368;2022-12-07T19:58:04;3.50;99.90